Centennial Airport
KAPA : rendu visible

Aérodrome :











RETROUVEZ-NOUS SUR...

 
LOGIN :

S'inscrire | Disclaimer

   EN    FR    IT 

 









Légende :    VFR   VFR Marginal   IFR   IFR Intensif   IFR Très Intensif
Visi : 
Plafond : 
>= 8 km
>= 3000ft
5 à 8 km
1000 à 3000 ft
1500m à 5 km
500 à 1000 ft
800 à 1500m
200 à 500 ft
< 800m
< 200 ft
Symboles :   Orages  Brouillard  Fortes neiges  Fortes précipitations  Vent > 20 kt






- Altitude de l'aérodrome : 5885 ft


KAPA - Centennial

DERNIER METAR :
  • 110053Z 18009KT 10SM FEW100 FEW150 BKN220 29/00 A3012 RMK AO2 SLP121 T02890000

METARs EXPIRÉS :
  • 102353Z 13009KT 10SM FEW100 SCT150 BKN220 30/02 A3012 RMK AO2 SLP119 T03000017 10322 20261 56014
  • 102253Z 14011G22KT 10SM FEW090 SCT150 BKN220 31/01 A3013 RMK AO2 SLP120 T03110011

TAF KAPA
Valide du 11 à 01h jusqu'au 12 à 00h UTC


110107Z 1101/1124 18010KT P6SM FEW100 FEW150 SCT220
FM110400 19010KT P6SM FEW090 FEW140
FM110900 23010KT P6SM FEW160
FM111500 25012KT P6SM FEW180
FM111900 34007KT P6SM FEW110 SCT200
FIR KZDV / Amérique du Nord



MET'MAP, la Météo Aéronautique d'un coup d'oeil ! - Copyright ORBIFLY Décembre 2007 - Disclaimer

ORBIFLY MET'MAP TEAM :

Programmation & Développement : Alexandra Zaïnal
Sur une idée originale de : Baudouin d'Aumeries
Assistance à la programmation : Marc-Olivier Méhu
Soutien technique & logistique : Manuel Goepfert

Contact : metmap@orbifly.com




SOURCES & CREDITS :

   NOAA       Earth
Advisory